Terminal Aerodrome Forecast
Issued by NWS

Home | Current Version | Previous Version | Text Only | Print | Product List | Glossary On
Versions: 1 2 3 4 5 6 7 8 9 10 11 12 13 14 15
000
FTUS46 KSTO 240536
TAFRDD
TAF
KRDD 240536Z 2406/2506 33005KT P6SM SCT080
     FM241700 18006KT P6SM BKN060
     FM250100 16007KT P6SM -RA OVC020=

USA.gov is the U.S. government's official web portal to all federal, state and local government web resources and services.